»·PEaware :: N318DA KSBA-KBUR

N318DA :: KSBA-KBUR

FLIGHT INFORMATION

Flight Status: Arrived
Operator: Privately registered:
United States
More flights under this callsign
Pilot: Roland T. (32460)
Aircraft: CIRRUS SR-22
(SR22)
More flights by this aircraft type
Origin: KSBA Santa Barbara Mun
United States
Destination: KBUR Bob Hope-Burbank
United States
More flights between these airports :: More routes between these airports
Route:
File this flight plan on PilotEdge
Remarks:
Altitude:
(Current/Filed)
5,500ft
Speed:
(Current/Filed)
160kts
Departed: 10-Jan-21 01:19 PM
Arrived: 10-Jan-21 01:57 PM
Distance/Time
Traveled:
6854nm/0:38
Distance/Time
To Go:
Arrived

Flight Plot

Page will automatically refresh every two minutes.


Map Options




Map Legend


Flown Route
Filed Route
Departure Airport
Arrival Airport
Navaid (VOR, NDB)
Fix

Horizontal Profiles

Position Reports

Time Latitude Longitude Heading Altitude Ground
Speed
10-Jan-21 12:58 34.426007 -119.837243 88 12ft 0kts
10-Jan-21 12:59 34.426007 -119.837243 88 12ft 0kts
10-Jan-21 13:00 34.426007 -119.837243 88 12ft 0kts
10-Jan-21 13:01 34.426007 -119.837243 88 12ft 0kts
10-Jan-21 13:02 34.426007 -119.837243 88 12ft 0kts
10-Jan-21 13:03 34.426007 -119.837243 88 12ft 0kts
10-Jan-21 13:04 34.426007 -119.837243 88 12ft 0kts
10-Jan-21 13:05 34.426007 -119.837243 88 12ft 0kts
10-Jan-21 13:06 34.426007 -119.837243 88 12ft 0kts
10-Jan-21 13:07 34.426007 -119.837243 88 12ft 0kts
10-Jan-21 13:08 34.426007 -119.837243 88 12ft 0kts
10-Jan-21 13:09 34.426007 -119.837243 88 12ft 0kts
10-Jan-21 13:10 34.426007 -119.837243 88 12ft 0kts
10-Jan-21 13:11 34.426007 -119.837243 88 12ft 0kts
10-Jan-21 13:12 34.426007 -119.837243 88 12ft 0kts
10-Jan-21 13:13 34.426007 -119.837243 88 12ft 0kts
10-Jan-21 13:14 34.426723 -119.836890 78 13ft 6kts
10-Jan-21 13:15 34.426752 -119.834884 58 12ft 5kts
10-Jan-21 13:16 34.427066 -119.834602 2 12ft 0kts
10-Jan-21 13:17 34.427066 -119.834602 2 12ft 0kts
10-Jan-21 13:18 34.427849 -119.839171 268 14ft 72kts
10-Jan-21 13:19 34.426796 -119.873781 266 916ft 118kts
10-Jan-21 13:20 34.423230 -119.918309 262 1480ft 158kts
10-Jan-21 13:21 34.399118 -119.958956 177 1611ft 162kts
10-Jan-21 13:22 34.379410 -119.925340 102 2963ft 130kts
10-Jan-21 13:23 34.370937 -119.881970 102 3935ft 133kts
10-Jan-21 13:24 34.361806 -119.837807 101 4817ft 136kts
10-Jan-21 13:25 34.352963 -119.792774 81 5461ft 145kts
10-Jan-21 13:26 34.364859 -119.742586 69 5464ft 160kts
10-Jan-21 13:27 34.378740 -119.690784 69 5467ft 162kts
10-Jan-21 13:28 34.393935 -119.639503 77 5467ft 163kts
10-Jan-21 13:29 34.388448 -119.584754 96 5467ft 165kts
10-Jan-21 13:30 34.380390 -119.530145 98 5467ft 164kts
10-Jan-21 13:31 34.372337 -119.475665 98 5466ft 164kts
10-Jan-21 13:32 34.364290 -119.421755 98 5458ft 163kts
10-Jan-21 13:33 34.356152 -119.367388 98 5460ft 164kts
10-Jan-21 13:34 34.347949 -119.313045 99 5490ft 166kts
10-Jan-21 13:35 34.339823 -119.258613 99 5510ft 165kts
10-Jan-21 13:36 34.331570 -119.203968 99 5510ft 164kts
10-Jan-21 13:37 34.323580 -119.151504 99 5519ft 163kts
10-Jan-21 13:38 34.316706 -119.101351 155 5477ft 167kts
10-Jan-21 13:39 34.291757 -119.061033 120 5497ft 164kts
10-Jan-21 13:40 34.267495 -119.013933 120 5498ft 164kts
10-Jan-21 13:41 34.243102 -118.967112 120 5499ft 165kts
10-Jan-21 13:42 34.230810 -118.914341 103 5500ft 163kts
10-Jan-21 13:43 34.219561 -118.860954 103 5497ft 164kts
10-Jan-21 13:44 34.215850 -118.806568 87 5495ft 163kts
10-Jan-21 13:45 34.216110 -118.795302 86 5495ft 163kts
10-Jan-21 13:46 34.216639 -118.768963 87 5485ft 144kts
10-Jan-21 13:47 34.209153 -118.723675 119 4985ft 152kts
10-Jan-21 13:48 34.213599 -118.676409 80 4461ft 152kts
10-Jan-21 13:49 34.211508 -118.624659 89 3967ft 154kts
10-Jan-21 13:50 34.209621 -118.575057 89 3438ft 143kts
10-Jan-21 13:51 34.207796 -118.527757 89 2987ft 137kts
10-Jan-21 13:52 34.205775 -118.484526 89 2999ft 125kts
10-Jan-21 13:53 34.204144 -118.441205 90 2899ft 136kts
10-Jan-21 13:54 34.198867 -118.395527 100 1968ft 112kts
10-Jan-21 13:55 34.197857 -118.365428 87 787ft 74kts
10-Jan-21 13:56 34.197851 -118.355488 79 715ft 1kts
10-Jan-21 13:58 34.198555 -118.355320 338 717ft 0kts
10-Jan-21 13:59 34.198704 -118.355436 305 717ft 6kts
10-Jan-21 14:00 34.199596 -118.360612 343 717ft 0kts
10-Jan-21 14:01 34.199606 -118.360616 343 717ft 0kts
10-Jan-21 14:02 0.000000 0.000000 0 0ft 0kts

Navigation Log

Ident Type
Flight plan parsing failed, navigation log unavailable